createdAt,value
2023-01-13T00:00:52.752Z,0.00
2023-01-13T00:01:53.068Z,0.00
2023-01-13T00:02:53.444Z,0.00
2023-01-13T00:03:53.807Z,0.00
2023-01-13T00:04:53.989Z,0.00
2023-01-13T00:05:54.182Z,0.00
2023-01-13T00:06:54.494Z,0.00
2023-01-13T00:07:54.782Z,0.00
2023-01-13T00:08:55.026Z,0.00
2023-01-13T00:09:55.364Z,0.00
2023-01-13T00:10:55.641Z,0.00
2023-01-13T00:11:55.942Z,0.00
2023-01-13T00:12:56.186Z,0.00
2023-01-13T00:13:56.459Z,0.00
2023-01-13T00:14:56.750Z,0.00
2023-01-13T00:15:57.068Z,0.00
2023-01-13T00:16:57.245Z,0.00
2023-01-13T00:17:57.559Z,0.00
2023-01-13T00:18:57.807Z,0.00
2023-01-13T00:19:58.130Z,0.00
2023-01-13T00:20:58.603Z,0.00
2023-01-13T00:21:58.695Z,0.00
2023-01-13T00:22:59.036Z,0.00
2023-01-13T00:23:59.341Z,0.00
2023-01-13T00:24:59.671Z,0.00
2023-01-13T00:25:59.875Z,1.00
2023-01-13T00:27:00.207Z,0.00
2023-01-13T00:28:00.911Z,0.00
2023-01-13T00:29:00.837Z,0.00
2023-01-13T00:30:01.068Z,0.00
2023-01-13T00:31:01.446Z,0.00
2023-01-13T00:32:01.681Z,0.00
2023-01-13T00:33:02.090Z,0.00
2023-01-13T00:34:02.326Z,0.00
2023-01-13T00:35:02.614Z,0.00
2023-01-13T00:36:02.908Z,0.00
2023-01-13T00:37:03.223Z,0.00
2023-01-13T00:38:03.560Z,0.00
2023-01-13T00:39:03.889Z,0.00
2023-01-13T00:40:04.171Z,0.00
2023-01-13T00:41:04.478Z,0.00
2023-01-13T00:42:04.737Z,0.00
2023-01-13T00:43:04.984Z,1.00
2023-01-13T00:44:05.340Z,0.00
2023-01-13T00:45:05.595Z,0.00
2023-01-13T00:46:06.075Z,0.00
2023-01-13T00:47:06.235Z,0.00
2023-01-13T00:48:06.555Z,0.00
2023-01-13T00:49:06.839Z,0.00
2023-01-13T00:50:07.149Z,0.00
2023-01-13T00:51:07.545Z,0.00
2023-01-13T00:52:07.789Z,0.00
2023-01-13T00:53:08.116Z,0.00
2023-01-13T00:54:08.456Z,0.00
2023-01-13T00:55:08.717Z,0.00
2023-01-13T00:56:09.029Z,0.00
2023-01-13T00:57:09.392Z,0.00
2023-01-13T00:58:09.641Z,0.00
2023-01-13T00:59:09.953Z,0.00
2023-01-13T01:00:10.305Z,0.00
2023-01-13T01:01:10.752Z,0.00
2023-01-13T01:02:11.027Z,0.00
2023-01-13T01:03:11.159Z,0.00
2023-01-13T01:04:11.529Z,0.00
2023-01-13T01:05:11.787Z,0.00
2023-01-13T01:06:12.096Z,0.00
2023-01-13T01:07:12.459Z,0.00
2023-01-13T01:08:12.768Z,0.00
2023-01-13T01:09:13.036Z,0.00
2023-01-13T01:10:13.368Z,0.00
2023-01-13T01:11:13.644Z,0.00
2023-01-13T01:12:13.994Z,0.00
2023-01-13T01:13:14.278Z,0.00
2023-01-13T01:14:14.599Z,0.00
2023-01-13T01:15:14.874Z,0.00
2023-01-13T01:16:15.241Z,0.00
2023-01-13T01:17:15.558Z,0.00
2023-01-13T01:18:15.803Z,0.00
2023-01-13T01:19:16.527Z,0.00
2023-01-13T01:20:16.403Z,0.00
2023-01-13T01:21:16.698Z,0.00
2023-01-13T01:22:16.985Z,0.00
2023-01-13T01:23:17.309Z,0.00
2023-01-13T01:24:17.644Z,0.00
2023-01-13T01:25:17.947Z,0.00
2023-01-13T01:26:18.217Z,0.00
2023-01-13T01:27:18.567Z,0.00
2023-01-13T01:28:18.859Z,0.00
2023-01-13T01:29:19.172Z,0.00
2023-01-13T01:30:19.440Z,0.00
2023-01-13T01:31:19.826Z,0.00
2023-01-13T01:32:20.104Z,0.00
2023-01-13T01:33:20.403Z,0.00
2023-01-13T01:34:20.702Z,0.00
2023-01-13T01:35:20.991Z,0.00
2023-01-13T01:36:21.277Z,0.00
2023-01-13T01:37:21.580Z,0.00
2023-01-13T01:38:21.898Z,0.00
2023-01-13T01:39:22.247Z,0.00
2023-01-13T01:40:22.526Z,0.00
2023-01-13T01:41:22.665Z,0.00
2023-01-13T01:42:23.011Z,0.00
2023-01-13T01:43:23.291Z,0.00
2023-01-13T01:44:23.607Z,0.00
2023-01-13T01:45:23.994Z,0.00
2023-01-13T01:46:24.231Z,0.00
2023-01-13T01:47:24.446Z,0.00
2023-01-13T01:48:24.710Z,0.00
2023-01-13T01:49:24.989Z,0.00
2023-01-13T01:50:25.338Z,0.00
2023-01-13T01:51:25.678Z,0.00
2023-01-13T01:52:25.975Z,0.00
2023-01-13T01:53:26.354Z,0.00
2023-01-13T01:54:26.539Z,0.00
2023-01-13T01:55:26.820Z,0.00
2023-01-13T01:56:27.100Z,0.00
2023-01-13T01:57:27.436Z,0.00
2023-01-13T01:58:27.717Z,0.00
2023-01-13T01:59:28.024Z,0.00
2023-01-13T02:00:28.396Z,0.00
2023-01-13T02:01:28.716Z,0.00
2023-01-13T02:02:29.054Z,0.00
2023-01-13T02:03:29.192Z,0.00
2023-01-13T02:04:29.530Z,0.00
2023-01-13T02:05:29.867Z,0.00
2023-01-13T02:06:30.154Z,0.00
2023-01-13T02:07:30.443Z,0.00
2023-01-13T02:08:30.746Z,0.00
2023-01-13T02:09:31.057Z,0.00
2023-01-13T02:10:31.356Z,0.00
2023-01-13T02:11:31.687Z,0.00
2023-01-13T02:12:31.963Z,0.00
2023-01-13T02:13:32.279Z,0.00
2023-01-13T02:14:32.449Z,0.00
2023-01-13T02:15:32.833Z,0.00
2023-01-13T02:16:33.182Z,0.00
2023-01-13T02:17:33.318Z,0.00
2023-01-13T02:18:33.641Z,0.00
2023-01-13T02:19:33.952Z,0.00
2023-01-13T02:20:34.311Z,0.00
2023-01-13T02:21:34.583Z,0.00
2023-01-13T02:22:34.944Z,0.00
2023-01-13T02:23:35.224Z,0.00
2023-01-13T02:24:35.514Z,0.00
2023-01-13T02:25:35.902Z,0.00
2023-01-13T02:26:36.054Z,0.00
2023-01-13T02:27:36.425Z,0.00
2023-01-13T02:28:36.667Z,0.00
2023-01-13T02:29:36.975Z,0.00
2023-01-13T02:30:37.252Z,0.00
2023-01-13T02:31:37.580Z,0.00
2023-01-13T02:32:37.893Z,0.00
2023-01-13T02:33:38.220Z,0.00
2023-01-13T02:34:38.558Z,0.00
2023-01-13T02:35:38.753Z,0.00
2023-01-13T02:36:39.021Z,0.00
2023-01-13T02:37:39.334Z,0.00
2023-01-13T02:38:39.629Z,0.00
2023-01-13T02:39:39.905Z,0.00
2023-01-13T02:40:40.208Z,0.00
2023-01-13T02:41:40.471Z,0.00
2023-01-13T02:42:40.789Z,0.00
2023-01-13T02:43:41.051Z,0.00
2023-01-13T02:44:41.430Z,0.00
2023-01-13T02:45:41.789Z,0.00
2023-01-13T02:46:41.987Z,0.00
2023-01-13T02:47:42.300Z,0.00
2023-01-13T02:48:42.561Z,0.00
2023-01-13T02:49:42.858Z,0.00
2023-01-13T02:50:43.159Z,0.00
2023-01-13T02:51:43.514Z,0.00
2023-01-13T02:52:43.784Z,0.00
2023-01-13T02:53:44.111Z,0.00
2023-01-13T02:54:44.407Z,0.00
2023-01-13T02:55:44.665Z,0.00
2023-01-13T02:56:45.062Z,0.00
2023-01-13T02:57:45.255Z,0.00
2023-01-13T02:58:45.564Z,0.00
2023-01-13T02:59:45.906Z,0.00
2023-01-13T03:00:46.271Z,0.00
2023-01-13T03:01:46.714Z,0.00
2023-01-13T03:02:46.829Z,0.00
2023-01-13T03:03:47.130Z,0.00
2023-01-13T03:04:47.434Z,0.00
2023-01-13T03:05:47.741Z,0.00
2023-01-13T03:06:48.059Z,0.00
2023-01-13T03:07:48.392Z,0.00
2023-01-13T03:08:48.703Z,0.00
2023-01-13T03:09:48.970Z,1.00
2023-01-13T03:10:49.331Z,0.00
2023-01-13T03:11:49.631Z,0.00
2023-01-13T03:12:50.026Z,0.00
2023-01-13T03:13:50.182Z,0.00
2023-01-13T03:14:50.493Z,0.00
2023-01-13T03:15:50.834Z,0.00
2023-01-13T03:16:51.221Z,0.00
2023-01-13T03:17:51.425Z,0.00
2023-01-13T03:18:51.758Z,0.00
2023-01-13T03:19:52.041Z,0.00
2023-01-13T03:20:52.393Z,0.00
2023-01-13T03:21:52.600Z,0.00
2023-01-13T03:22:52.904Z,0.00
2023-01-13T03:23:53.186Z,0.00
2023-01-13T03:24:53.491Z,0.00
2023-01-13T03:25:53.897Z,0.00
2023-01-13T03:26:54.064Z,0.00
2023-01-13T03:27:54.388Z,0.00
2023-01-13T03:28:54.760Z,0.00
2023-01-13T03:29:54.927Z,0.00
2023-01-13T03:30:55.297Z,0.00
2023-01-13T03:31:55.429Z,0.00
2023-01-13T03:32:55.749Z,0.00
2023-01-13T03:33:56.060Z,0.00
2023-01-13T03:34:56.338Z,0.00
2023-01-13T03:35:56.630Z,0.00
2023-01-13T03:36:56.853Z,0.00
2023-01-13T03:37:57.130Z,0.00
2023-01-13T03:38:57.488Z,0.00
2023-01-13T03:39:57.707Z,0.00
2023-01-13T03:40:58.030Z,0.00
2023-01-13T03:41:58.732Z,0.00
2023-01-13T03:42:58.626Z,0.00
2023-01-13T03:43:59.795Z,0.00
2023-01-13T03:44:59.264Z,0.00
2023-01-13T03:45:59.585Z,0.00
2023-01-13T03:46:59.905Z,0.00
2023-01-13T03:48:00.156Z,0.00
2023-01-13T03:49:00.493Z,0.00
2023-01-13T03:50:00.784Z,0.00
2023-01-13T03:51:01.089Z,0.00
2023-01-13T03:52:01.348Z,0.00
2023-01-13T03:53:01.689Z,0.00
2023-01-13T03:54:01.960Z,0.00
2023-01-13T03:55:02.384Z,0.00
2023-01-13T03:56:02.546Z,0.00
2023-01-13T03:57:02.820Z,1.00
2023-01-13T03:58:03.140Z,0.00
2023-01-13T03:59:03.473Z,0.00
2023-01-13T04:00:03.837Z,0.00
2023-01-13T04:01:04.205Z,0.00
2023-01-13T04:02:04.364Z,0.00
2023-01-13T04:03:04.622Z,0.00
2023-01-13T04:04:04.917Z,0.00
2023-01-13T04:05:05.219Z,0.00
2023-01-13T04:06:05.401Z,0.00
2023-01-13T04:07:05.761Z,0.00
2023-01-13T04:08:06.053Z,0.00
2023-01-13T04:09:06.415Z,0.00
2023-01-13T04:10:06.617Z,0.00
2023-01-13T04:11:06.945Z,0.00
2023-01-13T04:12:07.275Z,0.00
2023-01-13T04:13:07.512Z,0.00
2023-01-13T04:14:07.676Z,0.00
2023-01-13T04:15:07.983Z,0.00
2023-01-13T04:16:08.443Z,0.00
2023-01-13T04:17:08.592Z,0.00
2023-01-13T04:18:08.910Z,0.00
2023-01-13T04:19:09.241Z,0.00
2023-01-13T04:20:09.533Z,0.00
2023-01-13T04:21:09.827Z,0.00
2023-01-13T04:22:10.041Z,0.00
2023-01-13T04:23:10.470Z,0.00
2023-01-13T04:24:10.685Z,0.00
2023-01-13T04:25:10.991Z,0.00
2023-01-13T04:26:11.706Z,0.00
2023-01-13T04:27:11.507Z,0.00
2023-01-13T04:28:11.836Z,0.00
2023-01-13T04:29:14.665Z,0.00
2023-01-13T04:30:12.370Z,0.00
2023-01-13T04:31:12.770Z,0.00
2023-01-13T04:32:12.959Z,0.00
2023-01-13T04:33:13.296Z,0.00
2023-01-13T04:34:13.569Z,0.00
2023-01-13T04:35:13.801Z,0.00
2023-01-13T04:36:14.132Z,0.00
2023-01-13T04:37:14.491Z,0.00
2023-01-13T04:38:14.788Z,0.00
2023-01-13T04:39:15.055Z,0.00
2023-01-13T04:40:15.348Z,0.00
2023-01-13T04:41:15.730Z,0.00
2023-01-13T04:42:15.916Z,0.00
2023-01-13T04:43:16.227Z,0.00
2023-01-13T04:44:16.514Z,0.00
2023-01-13T04:45:16.817Z,0.00
2023-01-13T04:46:17.515Z,0.00
2023-01-13T04:47:17.401Z,0.00
2023-01-13T04:48:17.686Z,0.00
2023-01-13T04:49:17.995Z,0.00
2023-01-13T04:50:18.328Z,0.00
2023-01-13T04:51:18.637Z,0.00
2023-01-13T04:52:18.975Z,0.00
2023-01-13T04:53:19.119Z,0.00
2023-01-13T04:54:19.402Z,0.00
2023-01-13T04:55:19.719Z,0.00
2023-01-13T04:56:19.949Z,0.00
2023-01-13T04:57:20.249Z,0.00
2023-01-13T04:58:20.531Z,0.00
2023-01-13T04:59:20.828Z,0.00
2023-01-13T05:00:21.133Z,0.00
2023-01-13T05:01:21.596Z,0.00
2023-01-13T05:02:21.804Z,0.00
2023-01-13T05:03:22.061Z,0.00
2023-01-13T05:04:22.382Z,0.00
2023-01-13T05:05:22.675Z,0.00
2023-01-13T05:06:22.963Z,0.00
2023-01-13T05:07:23.303Z,0.00
2023-01-13T05:08:23.596Z,0.00
2023-01-13T05:09:23.919Z,0.00
2023-01-13T05:10:24.309Z,0.00
2023-01-13T05:11:24.535Z,0.00
2023-01-13T05:12:24.711Z,0.00
2023-01-13T05:13:25.048Z,0.00
2023-01-13T05:14:25.362Z,0.00
2023-01-13T05:15:25.658Z,0.00
2023-01-13T05:16:26.008Z,0.00
2023-01-13T05:17:26.301Z,0.00
2023-01-13T05:18:26.693Z,0.00
2023-01-13T05:19:26.953Z,0.00
2023-01-13T05:20:27.240Z,0.00
2023-01-13T05:21:27.561Z,0.00
2023-01-13T05:22:27.777Z,0.00
2023-01-13T05:23:28.184Z,0.00
2023-01-13T05:24:28.421Z,0.00
2023-01-13T05:25:28.749Z,0.00
2023-01-13T05:26:29.022Z,0.00
2023-01-13T05:27:29.359Z,0.00
2023-01-13T05:28:29.666Z,0.00
2023-01-13T05:29:29.905Z,0.00
2023-01-13T05:30:30.176Z,0.00
2023-01-13T05:31:30.481Z,0.00
2023-01-13T05:32:30.706Z,0.00
2023-01-13T05:33:30.993Z,0.00
2023-01-13T05:34:31.277Z,0.00
2023-01-13T05:35:31.585Z,0.00
2023-01-13T05:36:31.862Z,0.00
2023-01-13T05:37:32.200Z,0.00
2023-01-13T05:38:32.434Z,0.00
2023-01-13T05:39:32.731Z,0.00
2023-01-13T05:40:33.032Z,0.00
2023-01-13T05:41:33.355Z,0.00
2023-01-13T05:42:33.673Z,0.00
2023-01-13T05:43:34.180Z,0.00
2023-01-13T05:44:34.267Z,0.00
2023-01-13T05:45:34.566Z,0.00
2023-01-13T05:46:34.802Z,1.00
2023-01-13T05:47:35.077Z,0.00
2023-01-13T05:48:35.402Z,0.00
2023-01-13T05:49:36.632Z,0.00
2023-01-13T05:50:35.831Z,1.00
2023-01-13T05:51:36.178Z,0.00
2023-01-13T05:52:36.487Z,0.00
2023-01-13T05:53:36.814Z,0.00
2023-01-13T05:54:37.060Z,0.00
2023-01-13T05:55:37.351Z,0.00
2023-01-13T05:56:37.599Z,0.00
2023-01-13T05:57:37.908Z,0.00
2023-01-13T05:58:38.277Z,0.00
2023-01-13T05:59:38.529Z,0.00
2023-01-13T06:00:41.033Z,0.00
2023-01-13T06:01:39.005Z,0.00
2023-01-13T06:02:39.406Z,0.00
2023-01-13T06:03:39.722Z,0.00
2023-01-13T06:04:39.937Z,0.00
2023-01-13T06:05:40.287Z,0.00
2023-01-13T06:06:40.589Z,0.00
2023-01-13T06:07:40.916Z,0.00
2023-01-13T06:08:41.179Z,0.00
2023-01-13T06:09:41.507Z,0.00
2023-01-13T06:10:41.809Z,0.00
2023-01-13T06:11:42.133Z,1.00
2023-01-13T06:12:42.365Z,0.00
2023-01-13T06:13:42.666Z,0.00
2023-01-13T06:14:42.956Z,0.00
2023-01-13T06:15:43.286Z,0.00
2023-01-13T06:16:43.563Z,0.00
2023-01-13T06:17:43.900Z,0.00
2023-01-13T06:18:44.141Z,0.00
2023-01-13T06:19:44.451Z,1.00
2023-01-13T06:20:44.783Z,0.00
2023-01-13T06:21:44.964Z,0.00
2023-01-13T06:22:45.236Z,0.00
2023-01-13T06:23:45.841Z,0.00
2023-01-13T06:24:45.755Z,1.00
2023-01-13T06:25:46.968Z,0.00
2023-01-13T06:26:50.347Z,0.00
2023-01-13T06:27:46.957Z,0.00
2023-01-13T06:28:47.223Z,0.00
2023-01-13T06:29:47.179Z,0.00
2023-01-13T06:30:47.486Z,0.00
2023-01-13T06:31:47.846Z,0.00
2023-01-13T06:32:48.103Z,0.00
2023-01-13T06:33:48.495Z,0.00
2023-01-13T06:34:48.691Z,0.00
2023-01-13T06:35:49.003Z,1.00
2023-01-13T06:36:49.554Z,1.00
2023-01-13T06:37:49.584Z,0.00
2023-01-13T06:38:49.889Z,1.00
2023-01-13T06:39:50.268Z,0.00
2023-01-13T06:40:50.552Z,0.00
2023-01-13T06:41:50.858Z,0.00
2023-01-13T06:42:51.198Z,0.00
2023-01-13T06:43:51.524Z,0.00
2023-01-13T06:44:51.671Z,1.00
2023-01-13T06:45:52.023Z,0.00
2023-01-13T06:46:52.352Z,0.00
2023-01-13T06:47:52.630Z,0.00
2023-01-13T06:48:53.334Z,0.00
2023-01-13T06:49:53.310Z,0.00
2023-01-13T06:50:53.456Z,0.00
2023-01-13T06:51:53.719Z,1.00
2023-01-13T06:52:54.121Z,1.00
2023-01-13T06:53:54.202Z,1.00
2023-01-13T06:54:54.486Z,0.00
2023-01-13T06:55:54.820Z,0.00
2023-01-13T06:56:55.057Z,1.00
2023-01-13T06:57:55.399Z,1.00
2023-01-13T06:58:56.073Z,0.00
2023-01-13T06:59:55.893Z,1.00
2023-01-13T07:00:56.230Z,3.00
2023-01-13T07:01:56.611Z,6.00
2023-01-13T07:02:56.653Z,3.00
2023-01-13T07:03:57.029Z,2.00
2023-01-13T07:04:57.784Z,5.00
2023-01-13T07:05:57.471Z,5.00
2023-01-13T07:06:57.830Z,5.00
2023-01-13T07:07:58.218Z,5.00
2023-01-13T07:08:58.454Z,6.00
2023-01-13T07:09:58.669Z,5.00
2023-01-13T07:10:58.847Z,11.00
2023-01-13T07:11:59.111Z,12.00
2023-01-13T07:12:59.339Z,17.00
2023-01-13T07:13:59.683Z,16.00
2023-01-13T07:14:59.911Z,17.00
2023-01-13T07:16:00.366Z,24.00
2023-01-13T07:17:00.587Z,28.00
2023-01-13T07:18:00.902Z,32.00
2023-01-13T07:19:01.099Z,34.00
2023-01-13T07:20:01.406Z,34.00
2023-01-13T07:21:01.677Z,34.00
2023-01-13T07:22:01.951Z,32.00
2023-01-13T07:23:02.123Z,25.00
2023-01-13T07:24:02.539Z,19.00
2023-01-13T07:25:02.817Z,16.00
2023-01-13T07:26:03.057Z,7.00
2023-01-13T07:27:03.249Z,11.00
2023-01-13T07:28:03.613Z,9.00
2023-01-13T07:29:03.838Z,14.00
2023-01-13T07:30:04.086Z,18.00
2023-01-13T07:31:04.384Z,15.00
2023-01-13T07:32:04.872Z,22.00
2023-01-13T07:33:05.070Z,18.00
2023-01-13T07:34:05.436Z,17.00
2023-01-13T07:35:05.743Z,36.00
2023-01-13T07:36:05.913Z,40.00
2023-01-13T07:37:06.281Z,35.00
2023-01-13T07:38:06.524Z,37.00
2023-01-13T07:39:06.713Z,29.00
2023-01-13T07:40:07.133Z,33.00
2023-01-13T07:41:07.271Z,28.00
2023-01-13T07:42:07.672Z,21.00
2023-01-13T07:43:07.958Z,19.00
2023-01-13T07:44:08.240Z,21.00
2023-01-13T07:45:10.313Z,20.00
2023-01-13T07:46:08.957Z,16.00
2023-01-13T07:47:09.068Z,18.00
2023-01-13T07:48:09.325Z,20.00
2023-01-13T07:49:09.568Z,19.00
2023-01-13T07:50:09.860Z,23.00
2023-01-13T07:51:10.098Z,29.00
2023-01-13T07:52:10.310Z,26.00
2023-01-13T07:53:10.545Z,25.00
2023-01-13T07:54:10.850Z,34.00
2023-01-13T07:55:10.992Z,46.00
2023-01-13T07:56:11.391Z,61.00
2023-01-13T07:57:11.624Z,67.00
2023-01-13T07:58:11.838Z,65.00
2023-01-13T07:59:12.100Z,69.00
2023-01-13T08:00:13.054Z,51.00
2023-01-13T08:01:12.723Z,51.00
2023-01-13T08:02:13.136Z,57.00
2023-01-13T08:03:13.107Z,71.00
2023-01-13T08:04:13.345Z,89.00
2023-01-13T08:05:13.609Z,122.00
2023-01-13T08:06:13.862Z,138.00
2023-01-13T08:07:14.098Z,170.00
2023-01-13T08:08:14.333Z,187.00
2023-01-13T08:09:15.045Z,248.00
2023-01-13T08:10:14.888Z,272.00
2023-01-13T08:11:15.125Z,258.00
2023-01-13T08:12:15.389Z,260.00
2023-01-13T08:13:15.648Z,291.00
2023-01-13T08:14:15.921Z,308.00
2023-01-13T08:15:16.263Z,324.00
2023-01-13T08:16:16.479Z,327.00
2023-01-13T08:17:17.756Z,314.00
2023-01-13T08:18:17.026Z,356.00
2023-01-13T08:19:17.291Z,339.00
2023-01-13T08:20:17.590Z,332.00
2023-01-13T08:21:17.752Z,416.00
2023-01-13T08:22:18.050Z,343.00
2023-01-13T08:23:18.265Z,348.00
2023-01-13T08:24:18.576Z,408.00
2023-01-13T08:25:18.785Z,491.00
2023-01-13T08:26:19.076Z,366.00
2023-01-13T08:27:19.297Z,324.00
2023-01-13T08:28:19.559Z,302.00
2023-01-13T08:29:19.808Z,306.00
2023-01-13T08:30:20.166Z,354.00
2023-01-13T08:31:20.492Z,377.00
2023-01-13T08:32:20.642Z,383.00
2023-01-13T08:33:20.991Z,388.00
2023-01-13T08:34:21.231Z,452.00
2023-01-13T08:35:21.484Z,460.00
2023-01-13T08:36:21.736Z,471.00
2023-01-13T08:37:22.325Z,417.00
2023-01-13T08:38:22.308Z,523.00
2023-01-13T08:39:22.538Z,563.00
2023-01-13T08:40:22.798Z,587.00
2023-01-13T08:41:23.086Z,682.00
2023-01-13T08:42:23.338Z,494.00
2023-01-13T08:43:23.554Z,447.00
2023-01-13T08:44:23.817Z,413.00
2023-01-13T08:45:24.091Z,373.00
2023-01-13T08:46:24.323Z,372.00
2023-01-13T08:47:24.570Z,547.00
2023-01-13T08:48:24.864Z,571.00
2023-01-13T08:49:25.099Z,343.00
2023-01-13T08:50:25.444Z,279.00
2023-01-13T08:51:25.629Z,368.00
2023-01-13T08:52:25.987Z,356.00
2023-01-13T08:53:26.269Z,389.00
2023-01-13T08:54:26.513Z,391.00
2023-01-13T08:55:26.806Z,400.00
2023-01-13T08:56:27.086Z,450.00
2023-01-13T08:57:27.337Z,500.00
2023-01-13T08:58:27.573Z,617.00
2023-01-13T08:59:27.812Z,568.00
2023-01-13T09:00:28.055Z,536.00
2023-01-13T09:01:28.417Z,482.00
2023-01-13T09:02:28.636Z,568.00
2023-01-13T09:03:28.871Z,603.00
2023-01-13T09:04:29.217Z,664.00
2023-01-13T09:05:29.404Z,604.00
2023-01-13T09:06:29.729Z,590.00
2023-01-13T09:07:29.943Z,557.00
2023-01-13T09:08:30.200Z,710.00
2023-01-13T09:09:30.429Z,603.00
2023-01-13T09:10:30.708Z,635.00
2023-01-13T09:11:30.975Z,666.00
2023-01-13T09:12:31.423Z,366.00
2023-01-13T09:13:31.491Z,1162.00
2023-01-13T09:14:32.062Z,5527.00
2023-01-13T09:15:32.192Z,1794.00
2023-01-13T09:16:32.446Z,1724.00
2023-01-13T09:17:32.670Z,973.00
2023-01-13T09:18:32.954Z,837.00
2023-01-13T09:19:33.271Z,725.00
2023-01-13T09:20:33.538Z,734.00
2023-01-13T09:21:33.784Z,556.00
2023-01-13T09:22:34.068Z,655.00
2023-01-13T09:23:34.315Z,711.00
2023-01-13T09:24:34.591Z,791.00
2023-01-13T09:25:34.834Z,962.00
2023-01-13T09:26:35.128Z,961.00
2023-01-13T09:27:35.363Z,1059.00
2023-01-13T09:28:35.646Z,1356.00
2023-01-13T09:29:36.314Z,1053.00
2023-01-13T09:30:36.306Z,796.00
2023-01-13T09:31:36.501Z,602.00
2023-01-13T09:32:36.765Z,751.00
2023-01-13T09:33:36.993Z,606.00
2023-01-13T09:34:37.275Z,292.00
2023-01-13T09:35:37.540Z,979.00
2023-01-13T09:36:37.822Z,421.00
2023-01-13T09:37:38.108Z,284.00
2023-01-13T09:38:38.443Z,454.00
2023-01-13T09:39:38.694Z,915.00
2023-01-13T09:40:38.910Z,817.00
2023-01-13T09:41:39.148Z,839.00
2023-01-13T09:42:39.551Z,1436.00
2023-01-13T09:43:39.726Z,857.00
2023-01-13T09:44:39.998Z,399.00
2023-01-13T09:45:40.303Z,639.00
2023-01-13T09:46:40.672Z,1314.00
2023-01-13T09:47:40.916Z,1604.00
2023-01-13T09:48:41.218Z,1120.00
2023-01-13T09:49:41.542Z,1307.00
2023-01-13T09:50:41.739Z,586.00
2023-01-13T09:51:41.970Z,502.00
2023-01-13T09:52:42.310Z,398.00
2023-01-13T09:53:42.557Z,537.00
2023-01-13T09:54:42.894Z,697.00
2023-01-13T09:55:43.071Z,692.00
2023-01-13T09:56:43.490Z,619.00
2023-01-13T09:57:43.760Z,470.00
2023-01-13T09:58:44.215Z,417.00
2023-01-13T09:59:44.252Z,307.00
2023-01-13T10:00:44.564Z,384.00
2023-01-13T10:01:44.853Z,311.00
2023-01-13T10:02:45.111Z,209.00
2023-01-13T10:03:45.346Z,226.00
2023-01-13T10:04:45.628Z,246.00
2023-01-13T10:05:45.855Z,214.00
2023-01-13T10:06:46.164Z,232.00
2023-01-13T10:07:46.399Z,229.00
2023-01-13T10:08:46.765Z,197.00
2023-01-13T10:09:46.943Z,227.00
2023-01-13T10:10:47.231Z,319.00
2023-01-13T10:11:47.476Z,221.00
2023-01-13T10:12:47.923Z,134.00
2023-01-13T10:13:48.163Z,232.00
2023-01-13T10:14:48.475Z,827.00
2023-01-13T10:15:48.700Z,1005.00
2023-01-13T10:16:48.981Z,1327.00
2023-01-13T10:17:49.203Z,942.00
2023-01-13T10:18:49.497Z,647.00
2023-01-13T10:19:49.723Z,818.00
2023-01-13T10:20:49.995Z,1162.00
2023-01-13T10:21:50.240Z,1365.00
2023-01-13T10:22:50.544Z,1551.00
2023-01-13T10:23:50.821Z,1440.00
2023-01-13T10:24:51.062Z,1332.00
2023-01-13T10:25:51.357Z,1414.00
2023-01-13T10:26:51.587Z,1542.00
2023-01-13T10:27:51.877Z,1469.00
2023-01-13T10:28:52.224Z,1219.00
2023-01-13T10:29:52.457Z,1755.00
2023-01-13T10:30:52.815Z,2025.00
2023-01-13T10:31:53.041Z,1873.00
2023-01-13T10:32:53.323Z,1307.00
2023-01-13T10:33:53.583Z,1574.00
2023-01-13T10:34:53.862Z,2098.00
2023-01-13T10:35:54.173Z,2393.00
2023-01-13T10:36:54.451Z,2141.00
2023-01-13T10:37:54.761Z,2064.00
2023-01-13T10:38:57.202Z,1934.00
2023-01-13T10:39:55.324Z,1053.00
2023-01-13T10:40:55.629Z,1084.00
2023-01-13T10:41:55.938Z,1518.00
2023-01-13T10:42:56.281Z,1682.00
2023-01-13T10:43:56.377Z,1683.00
2023-01-13T10:44:56.646Z,1843.00
2023-01-13T10:45:57.016Z,1246.00
2023-01-13T10:46:57.276Z,1327.00
2023-01-13T10:47:57.478Z,1361.00
2023-01-13T10:48:57.762Z,864.00
2023-01-13T10:49:58.018Z,685.00
2023-01-13T10:50:58.276Z,658.00
2023-01-13T10:51:58.557Z,717.00
2023-01-13T10:52:58.814Z,620.00
2023-01-13T10:53:59.095Z,634.00
2023-01-13T10:54:59.403Z,1035.00
2023-01-13T10:55:59.612Z,614.00
2023-01-13T10:56:59.953Z,442.00
2023-01-13T10:58:00.177Z,531.00
2023-01-13T10:59:00.428Z,675.00
2023-01-13T11:00:00.727Z,446.00
2023-01-13T11:01:00.950Z,1333.00
2023-01-13T11:02:03.803Z,767.00
2023-01-13T11:03:01.574Z,1540.00
2023-01-13T11:04:02.119Z,1991.00
2023-01-13T11:05:02.104Z,1494.00
2023-01-13T11:06:02.421Z,1955.00
2023-01-13T11:07:02.810Z,936.00
2023-01-13T11:08:03.186Z,632.00
2023-01-13T11:09:03.417Z,1058.00
2023-01-13T11:10:03.520Z,1865.00
2023-01-13T11:11:03.868Z,1759.00
2023-01-13T11:12:04.122Z,1156.00
2023-01-13T11:13:04.454Z,2140.00
2023-01-13T11:14:04.670Z,2362.00
2023-01-13T11:15:04.946Z,1686.00
2023-01-13T11:16:05.251Z,769.00
2023-01-13T11:17:05.577Z,648.00
2023-01-13T11:18:05.765Z,2853.00
2023-01-13T11:19:06.089Z,1864.00
2023-01-13T11:20:06.314Z,1728.00
2023-01-13T11:21:06.634Z,1697.00
2023-01-13T11:22:06.883Z,1713.00
2023-01-13T11:23:07.668Z,1525.00
2023-01-13T11:24:07.466Z,1806.00
2023-01-13T11:25:07.821Z,1629.00
2023-01-13T11:26:08.109Z,1775.00
2023-01-13T11:27:08.340Z,1604.00
2023-01-13T11:28:08.730Z,1612.00
2023-01-13T11:29:08.849Z,1987.00
2023-01-13T11:30:09.229Z,1712.00
2023-01-13T11:31:09.631Z,1607.00
2023-01-13T11:32:09.721Z,2002.00
2023-01-13T11:33:10.037Z,1891.00
2023-01-13T11:34:10.243Z,1869.00
2023-01-13T11:35:10.542Z,1843.00
2023-01-13T11:36:10.862Z,1855.00
2023-01-13T11:37:11.190Z,2007.00
2023-01-13T11:38:11.444Z,1880.00
2023-01-13T11:39:11.762Z,1888.00
2023-01-13T11:40:12.029Z,1562.00
2023-01-13T11:41:12.291Z,1979.00
2023-01-13T11:42:12.595Z,2308.00
2023-01-13T11:43:12.838Z,2503.00
2023-01-13T11:44:13.235Z,3741.00
2023-01-13T11:45:13.362Z,18557.00
2023-01-13T11:46:13.633Z,5563.00
2023-01-13T11:47:13.909Z,3960.00
2023-01-13T11:48:14.135Z,3271.00
2023-01-13T11:49:14.480Z,15623.00
2023-01-13T11:50:14.785Z,2383.00
2023-01-13T11:51:15.098Z,8667.00
2023-01-13T11:52:15.295Z,2236.00
2023-01-13T11:53:15.653Z,4374.00
2023-01-13T11:54:16.366Z,3201.00
2023-01-13T11:55:17.422Z,4826.00
2023-01-13T11:56:17.435Z,2263.00
2023-01-13T11:57:18.281Z,4364.00
2023-01-13T11:58:18.406Z,2306.00
2023-01-13T11:59:18.951Z,5657.00
2023-01-13T12:00:20.516Z,2703.00
2023-01-13T12:01:23.186Z,2032.00
2023-01-13T12:02:20.237Z,939.00
2023-01-13T12:03:21.214Z,3750.00
2023-01-13T12:04:19.395Z,2891.00
2023-01-13T12:05:19.216Z,3293.00
2023-01-13T12:06:19.422Z,1991.00
2023-01-13T12:07:22.188Z,2308.00
2023-01-13T12:08:20.044Z,2037.00
2023-01-13T12:09:20.346Z,1907.00
2023-01-13T12:10:20.585Z,1250.00
2023-01-13T12:11:20.809Z,1543.00
2023-01-13T12:12:21.398Z,1076.00
2023-01-13T12:13:21.538Z,595.00
2023-01-13T12:14:21.550Z,486.00
2023-01-13T12:15:21.842Z,319.00
2023-01-13T12:16:22.235Z,898.00
2023-01-13T12:17:22.430Z,826.00
2023-01-13T12:18:22.761Z,725.00
2023-01-13T12:19:22.981Z,1531.00
2023-01-13T12:20:23.219Z,722.00
2023-01-13T12:21:25.972Z,942.00
2023-01-13T12:22:23.754Z,1228.00
2023-01-13T12:23:24.143Z,1585.00
2023-01-13T12:24:24.280Z,1137.00
2023-01-13T12:25:24.605Z,947.00
2023-01-13T12:26:24.863Z,1608.00
2023-01-13T12:27:25.200Z,1196.00
2023-01-13T12:28:25.510Z,1104.00
2023-01-13T12:29:25.780Z,1244.00
2023-01-13T12:30:26.008Z,80739.00
2023-01-13T12:31:27.013Z,83025.00
2023-01-13T12:32:26.980Z,81729.00
2023-01-13T12:33:28.265Z,80819.00
2023-01-13T12:34:27.612Z,82589.00
2023-01-13T12:35:31.521Z,76704.00
2023-01-13T12:36:28.772Z,80980.00
2023-01-13T12:37:29.337Z,80136.00
2023-01-13T12:38:28.674Z,81585.00
2023-01-13T12:39:29.128Z,74124.00
2023-01-13T12:40:29.423Z,17285.00
2023-01-13T12:41:29.837Z,20448.00
2023-01-13T12:42:29.860Z,76513.00
2023-01-13T12:43:29.884Z,81192.00
2023-01-13T12:44:30.181Z,76371.00
2023-01-13T12:45:30.626Z,12259.00
2023-01-13T12:46:31.252Z,18068.00
2023-01-13T12:47:30.984Z,29294.00
2023-01-13T12:48:31.334Z,5255.00
2023-01-13T12:49:31.775Z,1012.00
2023-01-13T12:50:31.833Z,1111.00
2023-01-13T12:51:32.122Z,737.00
2023-01-13T12:52:32.335Z,76837.00
2023-01-13T12:53:32.614Z,75178.00
2023-01-13T12:54:32.911Z,75483.00
2023-01-13T12:55:33.200Z,75233.00